Time;durP1;ratioP1;P1;durP2;ratioP2;P2;SDS_P1;SDS_P2;PMS_P1;PMS_P2;Temp;Humidity;BMP_temperature;BMP_pressure;BME280_temperature;BME280_humidity;BME280_pressure;Samples;Min_cycle;Max_cycle;Signal;HPM_P1;HPM_P2
2021/08/02 00:04:27;;;;;;;4.90;3.50;;;;;;;18.43;68.70;98142.65;263529;1092;115513;-67
2021/08/02 00:09:36;;;;;;;4.63;4.23;;;;;;;18.39;68.74;98129.69;263649;1092;115067;-66
2021/08/02 00:14:41;;;;;;;5.07;3.40;;;;;;;18.37;68.12;98137.92;263584;1093;115867;-67
2021/08/02 00:19:44;;;;;;;4.13;3.20;;;;;;;18.38;68.20;98134.23;263675;1092;115554;-68
2021/08/02 00:24:49;;;;;;;2.73;2.50;;;;;;;18.40;68.03;98139.45;263445;1092;116566;-68
2021/08/02 00:29:53;;;;;;;2.67;2.30;;;;;;;18.40;68.43;98158.30;263353;1093;114959;-69
2021/08/02 00:34:57;;;;;;;3.25;2.55;;;;;;;18.37;68.06;98161.33;263597;1092;115107;-69
2021/08/02 00:40:07;;;;;;;3.20;2.03;;;;;;;18.33;68.34;98168.06;263782;1093;116121;-70
2021/08/02 00:45:21;;;;;;;2.75;2.10;;;;;;;18.32;68.58;98177.16;263580;1093;115001;-68
2021/08/02 00:50:27;;;;;;;2.77;1.93;;;;;;;18.29;68.31;98178.33;263529;1093;115503;-69
2021/08/02 00:55:35;;;;;;;2.93;1.90;;;;;;;18.23;68.05;98187.06;263552;1093;115095;-71
2021/08/02 01:00:43;;;;;;;1.90;1.73;;;;;;;18.16;68.08;98184.19;263633;1092;115274;-71
2021/08/02 01:05:49;;;;;;;2.40;1.57;;;;;;;18.16;68.67;98188.73;263642;1093;115533;-72
2021/08/02 01:11:01;;;;;;;1.50;1.33;;;;;;;18.13;68.16;98183.67;263459;1093;115490;-66
2021/08/02 01:16:09;;;;;;;2.83;2.63;;;;;;;18.16;67.88;98186.88;263480;1092;115981;-67
2021/08/02 01:21:19;;;;;;;3.20;2.90;;;;;;;18.09;68.07;98182.31;262923;1093;115749;-68
2021/08/02 01:26:44;;;;;;;4.87;2.93;;;;;;;18.04;68.04;98181.98;263610;1092;114938;-69
2021/08/02 01:31:53;;;;;;;3.27;2.17;;;;;;;18.00;68.21;98200.28;263632;1093;116595;-68
2021/08/02 01:36:57;;;;;;;3.88;2.40;;;;;;;18.01;68.90;98196.61;263452;1091;115420;-65
2021/08/02 01:42:02;;;;;;;1.80;1.70;;;;;;;18.02;68.47;98206.36;263554;1092;115274;-66
2021/08/02 01:47:44;;;;;;;2.50;2.00;;;;;;;17.94;68.21;98206.34;263696;1092;115159;-68
2021/08/02 01:53:17;;;;;;;4.23;2.13;;;;;;;17.84;68.44;98209.16;263707;1092;115097;-69
2021/08/02 01:58:22;;;;;;;3.47;1.80;;;;;;;17.82;68.33;98234.54;263212;1092;115863;-69
2021/08/02 02:03:35;;;;;;;2.23;2.03;;;;;;;17.79;69.07;98224.09;263535;1092;115113;-67
2021/08/02 02:09:00;;;;;;;4.23;2.47;;;;;;;17.81;68.55;98224.78;263736;1091;116460;-70
2021/08/02 02:14:10;;;;;;;5.43;2.63;;;;;;;17.79;68.52;98233.00;263615;1093;115628;-67
2021/08/02 02:19:18;;;;;;;6.03;3.20;;;;;;;17.72;68.60;98250.77;262574;1092;115779;-68
2021/08/02 02:24:26;;;;;;;5.07;3.20;;;;;;;17.67;68.26;98248.56;263408;1092;116218;-70
2021/08/02 02:29:32;;;;;;;4.83;3.10;;;;;;;17.63;68.52;98268.73;263575;1092;115944;-69
2021/08/02 02:34:38;;;;;;;4.75;3.70;;;;;;;17.67;68.27;98275.48;263638;1093;115716;-67
2021/08/02 02:39:43;;;;;;;6.80;4.10;;;;;;;17.63;68.33;98275.94;263528;1093;115272;-68
2021/08/02 02:44:49;;;;;;;6.67;5.40;;;;;;;17.58;68.27;98291.73;263451;1092;115408;-70
2021/08/02 02:49:54;;;;;;;8.00;4.90;;;;;;;17.54;68.24;98291.20;263534;1092;114913;-69
2021/08/02 02:55:01;;;;;;;7.77;6.17;;;;;;;17.60;68.19;98301.34;263508;1093;116070;-69
2021/08/02 03:00:09;;;;;;;11.63;7.70;;;;;;;17.62;68.12;98303.85;263393;1093;115413;-69
2021/08/02 03:05:14;;;;;;;8.47;7.13;;;;;;;17.62;67.89;98304.69;263679;1092;114931;-69
2021/08/02 03:10:23;;;;;;;8.63;7.28;;;;;;;17.56;68.06;98313.42;263463;1092;115654;-69
2021/08/02 03:15:27;;;;;;;11.03;6.73;;;;;;;17.57;68.61;98323.17;263481;1093;115781;-70
2021/08/02 03:20:31;;;;;;;8.30;6.50;;;;;;;17.60;68.19;98317.48;263503;1093;115437;-67
2021/08/02 03:25:51;;;;;;;10.28;6.83;;;;;;;17.63;68.50;98322.55;263721;1092;115024;-71
2021/08/02 03:30:57;;;;;;;12.83;7.07;;;;;;;17.58;68.35;98335.61;263450;1092;116005;-69
2021/08/02 03:36:06;;;;;;;11.50;7.67;;;;;;;17.56;68.14;98331.38;263820;1092;115486;-69
2021/08/02 03:41:12;;;;;;;9.70;7.20;;;;;;;17.57;68.08;98333.09;263783;1093;116374;-68
2021/08/02 03:46:17;;;;;;;11.33;5.77;;;;;;;18.07;70.33;98333.29;263361;1092;116131;-67
2021/08/02 03:51:21;;;;;;;11.68;7.70;;;;;;;18.80;70.22;98340.00;263683;1092;115443;-74
2021/08/02 03:56:25;;;;;;;8.58;7.38;;;;;;;19.15;69.70;98352.36;263533;1092;115153;-71
2021/08/02 04:01:29;;;;;;;9.63;7.35;;;;;;;19.37;68.73;98350.88;263724;1092;114976;-70
2021/08/02 04:06:34;;;;;;;12.00;10.45;;;;;;;19.58;68.68;98353.91;263709;1091;115523;-66
2021/08/02 04:11:38;;;;;;;;;;;;;;;19.84;67.92;98355.63;263751;1092;116529;-72
2021/08/02 04:16:44;;;;;;;25.40;19.80;;;;;;;20.00;67.64;98365.53;263707;1092;102287;-75
2021/08/02 04:21:48;;;;;;;12.25;8.88;;;;;;;19.76;65.89;98367.25;263463;1092;115299;-70
2021/08/02 04:26:51;;;;;;;52.17;40.77;;;;;;;19.45;66.18;98360.83;261583;1092;116274;-70
2021/08/02 04:31:55;;;;;;;16.85;12.38;;;;;;;19.35;65.88;98363.69;263652;1093;115412;-67
2021/08/02 04:36:59;;;;;;;16.23;13.55;;;;;;;18.97;65.60;98368.69;263562;1092;115972;-67
2021/08/02 04:42:03;;;;;;;18.43;13.55;;;;;;;18.70;65.71;98391.32;263815;1092;116376;-66
2021/08/02 04:47:07;;;;;;;13.90;12.45;;;;;;;18.46;65.88;98392.06;263768;1091;116097;-69
2021/08/02 04:52:10;;;;;;;17.00;13.53;;;;;;;18.27;66.02;98408.45;263580;1093;115939;-67
2021/08/02 04:57:14;;;;;;;18.50;14.07;;;;;;;18.20;66.41;98414.47;263239;1093;116219;-70
2021/08/02 05:02:19;;;;;;;20.90;14.93;;;;;;;18.10;66.52;98413.73;263614;1092;115688;-70
2021/08/02 05:07:23;;;;;;;16.20;12.83;;;;;;;17.98;66.84;98406.94;263715;1092;115354;-68
2021/08/02 05:12:26;;;;;;;12.50;9.30;;;;;;;17.88;66.71;98414.27;263414;1093;115815;-67
2021/08/02 05:17:30;;;;;;;11.40;8.23;;;;;;;17.84;66.76;98420.97;263588;1093;115903;-66
2021/08/02 05:22:34;;;;;;;16.33;9.37;;;;;;;17.77;66.61;98425.29;263701;1092;115527;-68
2021/08/02 05:27:39;;;;;;;14.43;8.80;;;;;;;17.78;67.42;98445.81;263637;1092;116136;-68
2021/08/02 05:32:43;;;;;;;13.97;6.47;;;;;;;17.72;67.29;98456.15;263199;1093;115179;-70
2021/08/02 05:37:46;;;;;;;8.05;5.08;;;;;;;17.72;67.61;98450.77;263305;1093;115276;-66
2021/08/02 05:42:50;;;;;;;9.60;4.80;;;;;;;17.71;67.57;98454.47;263755;1093;115628;-70
2021/08/02 05:47:53;;;;;;;7.30;4.70;;;;;;;17.72;67.78;98463.38;263562;1092;116495;-69
2021/08/02 05:52:59;;;;;;;12.50;5.07;;;;;;;17.72;67.76;98474.98;263541;1093;115329;-70
2021/08/02 05:58:02;;;;;;;7.33;4.83;;;;;;;17.73;67.48;98473.17;263456;1092;115366;-66
2021/08/02 06:03:07;;;;;;;9.38;4.23;;;;;;;17.71;67.60;98478.69;263693;1092;115822;-68
2021/08/02 06:08:11;;;;;;;9.17;4.30;;;;;;;17.80;67.96;98484.17;263729;1091;114881;-71
2021/08/02 06:13:14;;;;;;;6.03;4.03;;;;;;;17.87;67.80;98493.34;263715;1093;115354;-71
2021/08/02 06:18:18;;;;;;;6.00;4.17;;;;;;;17.86;67.84;98503.23;263591;1093;116156;-67
2021/08/02 06:23:22;;;;;;;15.83;4.90;;;;;;;17.85;67.71;98509.63;263571;1092;115421;-68
2021/08/02 06:28:25;;;;;;;9.55;4.38;;;;;;;17.88;68.06;98511.17;263380;1092;115468;-68
2021/08/02 06:33:29;;;;;;;7.27;4.37;;;;;;;17.88;67.94;98519.25;263722;1091;115436;-68
2021/08/02 06:38:37;;;;;;;8.70;4.30;;;;;;;17.86;68.22;98524.77;263661;1093;115147;-68
2021/08/02 06:43:40;;;;;;;;;;;;;;;17.86;68.22;98527.47;263478;1093;115338;-68
2021/08/02 06:48:44;;;;;;;7.93;4.47;;;;;;;17.84;68.60;98526.80;263747;1092;102621;-67
2021/08/02 06:53:48;;;;;;;6.55;3.73;;;;;;;17.86;68.49;98532.01;263516;1093;115711;-66
2021/08/02 06:58:52;;;;;;;6.57;3.63;;;;;;;17.91;68.36;98545.88;263393;1093;115113;-66
2021/08/02 07:03:55;;;;;;;11.40;3.98;;;;;;;17.96;68.51;98539.00;263652;1092;115291;-68
2021/08/02 07:08:59;;;;;;;6.83;3.77;;;;;;;17.93;68.45;98544.73;263573;1092;115436;-66
2021/08/02 07:14:03;;;;;;;10.50;3.90;;;;;;;17.92;67.96;98543.01;262452;1092;115993;-68
2021/08/02 07:19:06;;;;;;;4.30;3.55;;;;;;;17.89;68.35;98550.55;263456;1092;115341;-67
2021/08/02 07:24:12;;;;;;;7.60;3.73;;;;;;;17.90;68.52;98547.72;263851;1091;115811;-68
2021/08/02 07:29:16;;;;;;;4.60;3.98;;;;;;;17.94;68.45;98557.17;263163;1092;115413;-68
2021/08/02 07:34:20;;;;;;;8.13;4.10;;;;;;;17.94;68.60;98551.80;262546;1093;115097;-68
2021/08/02 07:39:24;;;;;;;22.97;13.90;;;;;;;17.91;68.63;98548.56;263293;1091;115446;-70
2021/08/02 07:44:28;;;;;;;6.93;3.45;;;;;;;17.86;68.30;98553.55;263458;1093;115773;-69
2021/08/02 07:49:33;;;;;;;6.88;3.53;;;;;;;17.86;68.43;98556.23;263192;1092;115579;-69
2021/08/02 07:54:37;;;;;;;22.05;13.93;;;;;;;17.90;68.50;98560.31;263509;1093;114838;-68
2021/08/02 07:59:41;;;;;;;5.90;3.10;;;;;;;17.93;68.20;98566.27;263810;1092;115888;-70
2021/08/02 08:04:44;;;;;;;5.13;3.70;;;;;;;17.95;68.47;98566.94;263580;1092;116313;-70
2021/08/02 08:09:48;;;;;;;4.43;2.70;;;;;;;18.03;68.47;98573.39;263363;1093;116186;-69
2021/08/02 08:14:51;;;;;;;4.50;2.85;;;;;;;18.06;68.05;98582.01;263752;1092;115402;-70
2021/08/02 08:19:55;;;;;;;3.80;2.80;;;;;;;18.13;68.40;98582.24;263774;1093;116911;-69
2021/08/02 08:24:59;;;;;;;7.83;3.50;;;;;;;18.15;68.27;98591.03;263360;1092;115203;-69
2021/08/02 08:30:05;;;;;;;4.30;3.28;;;;;;;18.16;68.37;98585.47;263077;1092;115225;-71
2021/08/02 08:35:11;;;;;;;5.60;3.40;;;;;;;18.25;68.37;98585.56;263184;1092;115405;-71
2021/08/02 08:40:15;;;;;;;6.50;3.33;;;;;;;18.34;68.30;98588.17;262916;1092;115092;-68
2021/08/02 08:45:18;;;;;;;8.13;3.63;;;;;;;18.48;68.39;98599.38;263540;1093;115019;-68
2021/08/02 08:50:24;;;;;;;12.55;9.13;;;;;;;18.55;68.47;98600.47;263425;1093;115286;-67
2021/08/02 08:55:28;;;;;;;6.60;4.30;;;;;;;18.64;68.32;98616.52;263160;1092;115910;-69
2021/08/02 09:00:34;;;;;;;7.93;4.18;;;;;;;18.71;68.06;98616.73;263292;1092;115429;-69
2021/08/02 09:05:38;;;;;;;5.23;3.27;;;;;;;18.77;67.80;98623.39;263839;1093;115689;-69
2021/08/02 09:10:54;;;;;;;5.43;4.03;;;;;;;18.79;68.05;98618.70;263504;1092;114899;-67
2021/08/02 09:16:11;;;;;;;5.87;3.77;;;;;;;18.87;67.91;98607.96;263595;1092;115135;-69
2021/08/02 09:21:15;;;;;;;9.40;4.20;;;;;;;19.04;67.61;98601.66;263376;1093;116091;-70
2021/08/02 09:26:30;;;;;;;6.97;3.70;;;;;;;19.18;67.25;98604.77;263613;1092;115314;-69
2021/08/02 09:31:40;;;;;;;6.53;4.10;;;;;;;19.31;66.99;98597.08;263747;1092;116091;-66
2021/08/02 09:36:53;;;;;;;8.20;4.90;;;;;;;19.42;66.96;98604.05;263541;1093;115616;-69
2021/08/02 09:42:05;;;;;;;7.00;4.60;;;;;;;19.50;66.79;98590.60;263753;1093;115821;-71
2021/08/02 09:47:28;;;;;;;7.40;4.70;;;;;;;19.51;66.55;98592.28;263662;1093;115515;-68
2021/08/02 09:52:32;;;;;;;8.47;4.53;;;;;;;19.58;66.28;98591.45;263712;1093;115164;-68
2021/08/02 09:57:36;;;;;;;14.80;10.20;;;;;;;19.69;65.98;98586.80;263439;1092;115721;-69
2021/08/02 10:02:41;;;;;;;7.38;5.25;;;;;;;19.80;65.89;98603.55;263282;1092;115154;-68
2021/08/02 10:07:47;;;;;;;8.07;5.00;;;;;;;19.87;65.35;98590.24;263753;1092;115192;-70
2021/08/02 10:12:51;;;;;;;11.13;6.57;;;;;;;20.01;65.77;98586.05;263805;1090;115068;-69
2021/08/02 10:17:56;;;;;;;7.47;6.20;;;;;;;20.24;65.68;98580.81;263241;1092;115145;-75
2021/08/02 10:23:05;;;;;;;8.53;6.27;;;;;;;20.48;65.53;98591.66;262947;1092;114737;-70
2021/08/02 10:28:15;;;;;;;8.90;5.90;;;;;;;20.74;65.25;98593.34;261523;1093;114713;-70
2021/08/02 10:33:19;;;;;;;7.03;5.13;;;;;;;21.02;65.01;98600.08;262920;1092;115172;-71
2021/08/02 10:38:22;;;;;;;6.83;5.20;;;;;;;21.18;64.14;98593.76;261995;1092;114919;-74
2021/08/02 10:43:31;;;;;;;7.68;5.03;;;;;;;21.29;63.65;98603.36;261309;1093;115238;-72
2021/08/02 10:48:35;;;;;;;7.27;4.50;;;;;;;21.39;63.51;98612.16;263614;1092;114894;-67
2021/08/02 10:53:39;;;;;;;44.88;31.08;;;;;;;21.46;63.20;98593.35;263760;1093;114760;-72
2021/08/02 10:58:43;;;;;;;10.07;5.87;;;;;;;21.55;62.64;98607.71;263243;1093;115568;-70
2021/08/02 11:03:47;;;;;;;6.90;4.88;;;;;;;21.64;62.00;98579.58;263386;1092;115112;-66
2021/08/02 11:09:08;;;;;;;6.13;4.20;;;;;;;21.77;61.48;98585.23;263531;1093;114874;-69
2021/08/02 11:14:22;;;;;;;6.73;4.30;;;;;;;21.88;61.61;98581.31;263637;1092;115201;-72
2021/08/02 11:19:31;;;;;;;9.53;4.87;;;;;;;21.95;61.26;98580.41;263203;1092;114516;-69
2021/08/02 11:24:38;;;;;;;8.30;5.90;;;;;;;22.07;61.30;98590.83;263416;1092;115008;-73
2021/08/02 11:29:47;;;;;;;7.85;5.53;;;;;;;22.23;61.21;98587.20;263790;1093;114477;-70
2021/08/02 11:34:57;;;;;;;5.93;4.60;;;;;;;22.37;60.78;98597.25;263543;1093;115296;-70
2021/08/02 11:40:05;;;;;;;5.28;3.90;;;;;;;22.49;60.29;98594.98;263649;1093;115373;-70
2021/08/02 11:45:09;;;;;;;7.57;3.90;;;;;;;22.64;59.68;98593.97;263448;1093;114915;-71
2021/08/02 11:50:16;;;;;;;4.88;3.63;;;;;;;22.84;59.46;98598.89;263579;1092;116254;-67
2021/08/02 11:55:20;;;;;;;4.17;3.57;;;;;;;23.07;59.28;98596.15;263263;1092;115128;-70
2021/08/02 12:00:23;;;;;;;4.40;3.98;;;;;;;23.02;58.68;98588.55;263493;1093;115014;-67
2021/08/02 12:05:30;;;;;;;6.03;4.00;;;;;;;22.87;58.19;98607.50;263732;1092;115263;-68
2021/08/02 12:10:38;;;;;;;12.47;5.30;;;;;;;22.59;58.75;98618.11;263562;1093;114884;-69
2021/08/02 12:15:59;;;;;;;10.77;5.50;;;;;;;22.19;58.75;98639.06;263265;1093;115366;-69
2021/08/02 12:21:15;;;;;;;10.47;4.70;;;;;;;21.70;59.63;98651.98;263320;1092;115695;-67
2021/08/02 12:26:20;;;;;;;7.87;3.93;;;;;;;21.24;60.06;98652.61;263528;1093;115113;-69
2021/08/02 12:31:24;;;;;;;4.20;3.10;;;;;;;20.90;60.51;98643.88;263765;1092;115730;-70
2021/08/02 12:36:28;;;;;;;4.65;3.98;;;;;;;20.63;60.63;98636.97;263784;1093;115476;-71
2021/08/02 12:41:37;;;;;;;4.20;2.03;;;;;;;20.42;61.41;98629.33;263245;1093;115172;-69
2021/08/02 12:47:00;;;;;;;5.93;2.33;;;;;;;20.32;61.39;98626.78;263219;1092;115145;-69
2021/08/02 12:52:08;;;;;;;9.43;2.40;;;;;;;20.33;61.74;98625.76;263712;1091;116323;-68
2021/08/02 12:57:11;;;;;;;6.28;3.50;;;;;;;20.49;62.70;98614.96;263659;1093;115465;-69
2021/08/02 13:02:15;;;;;;;3.08;2.78;;;;;;;20.93;63.48;98609.22;263397;1093;115810;-66
2021/08/02 13:07:20;;;;;;;7.03;3.10;;;;;;;21.39;63.60;98603.20;263660;1092;115894;-71
2021/08/02 13:12:25;;;;;;;5.33;4.20;;;;;;;22.01;63.43;98597.83;263863;1093;114895;-66
2021/08/02 13:17:28;;;;;;;4.23;3.50;;;;;;;22.65;63.75;98595.65;263617;1093;115464;-69
2021/08/02 13:22:44;;;;;;;4.00;3.15;;;;;;;23.24;63.12;98581.36;263587;1093;116092;-70
2021/08/02 13:27:48;;;;;;;5.23;3.10;;;;;;;23.78;62.65;98575.61;263436;1093;116630;-66
2021/08/02 13:32:56;;;;;;;6.00;2.50;;;;;;;24.21;60.62;98588.41;263469;1092;115288;-68
2021/08/02 13:38:00;;;;;;;2.50;2.30;;;;;;;24.30;59.14;98596.25;263193;1092;114638;-68
2021/08/02 13:43:03;;;;;;;4.20;2.60;;;;;;;24.08;57.96;98599.97;263475;1092;115393;-67
2021/08/02 13:48:07;;;;;;;4.45;2.25;;;;;;;23.82;57.54;98601.37;262805;1093;114909;-68
2021/08/02 13:53:11;;;;;;;2.50;2.20;;;;;;;23.80;57.52;98597.98;263608;1092;115128;-69
2021/08/02 13:58:15;;;;;;;142.15;123.75;;;;;;;24.14;57.35;98603.81;263586;1092;115152;-68
2021/08/02 14:03:18;;;;;;;5.75;4.70;;;;;;;24.44;57.05;98591.80;263204;1093;116130;-67
2021/08/02 14:08:23;;;;;;;5.13;2.63;;;;;;;24.72;56.24;98591.00;263294;1093;115162;-69
2021/08/02 14:13:33;;;;;;;3.78;2.40;;;;;;;24.93;54.99;98604.59;262790;1092;115043;-68
2021/08/02 14:19:10;;;;;;;2.60;2.40;;;;;;;25.05;54.80;98598.59;263132;1093;116572;-69
2021/08/02 14:24:13;;;;;;;3.57;2.50;;;;;;;25.03;54.11;98587.88;263298;1092;115689;-70
2021/08/02 14:29:18;;;;;;;4.45;2.60;;;;;;;24.85;54.04;98588.38;263502;1092;115919;-70
2021/08/02 14:34:23;;;;;;;70.70;53.97;;;;;;;24.66;53.90;98584.48;263432;1093;115833;-69
2021/08/02 14:39:29;;;;;;;6.30;4.20;;;;;;;24.53;53.85;98590.64;262933;1093;115509;-70
2021/08/02 14:44:42;;;;;;;5.23;2.80;;;;;;;24.33;53.21;98599.63;263004;1092;115256;-69
2021/08/02 14:49:48;;;;;;;3.83;2.60;;;;;;;24.11;53.12;98596.03;263245;1093;116025;-70
2021/08/02 14:54:52;;;;;;;3.77;2.53;;;;;;;23.88;53.10;98593.47;263239;1092;115343;-70
2021/08/02 14:59:55;;;;;;;5.68;2.70;;;;;;;23.65;52.89;98616.17;263271;1092;115346;-71
2021/08/02 15:05:00;;;;;;;5.63;3.63;;;;;;;23.46;53.01;98614.03;262444;1091;115021;-68
2021/08/02 15:10:04;;;;;;;;;;;;;;;23.34;53.38;98606.36;263169;1092;116297;-71
2021/08/02 15:15:09;;;;;;;2.90;2.50;;;;;;;23.26;53.19;98606.44;263842;1092;102636;-70
2021/08/02 15:20:16;;;;;;;3.60;2.77;;;;;;;23.23;53.33;98614.11;263641;1093;115507;-71
2021/08/02 15:25:21;;;;;;;6.50;2.70;;;;;;;23.17;53.03;98623.03;262116;1092;115409;-73
2021/08/02 15:30:25;;;;;;;4.20;2.67;;;;;;;23.04;53.02;98610.09;262675;1092;114980;-71
2021/08/02 15:35:29;;;;;;;3.23;2.65;;;;;;;22.91;52.83;98616.95;263460;1093;116294;-70
2021/08/02 15:40:33;;;;;;;4.65;3.10;;;;;;;22.82;52.86;98619.92;263630;1093;115191;-70
2021/08/02 15:45:37;;;;;;;3.35;2.90;;;;;;;22.73;53.27;98627.31;263593;1092;115542;-70
2021/08/02 15:50:40;;;;;;;3.57;2.80;;;;;;;22.62;53.36;98615.03;263145;1092;115250;-67
2021/08/02 15:55:46;;;;;;;5.63;3.80;;;;;;;22.56;53.26;98626.60;262253;1092;115055;-66
2021/08/02 16:01:01;;;;;;;4.70;2.70;;;;;;;22.46;53.55;98641.44;263183;1092;114891;-67
2021/08/02 16:06:07;;;;;;;6.83;2.70;;;;;;;22.38;53.16;98648.61;263277;1092;115180;-70
2021/08/02 16:11:12;;;;;;;4.60;3.10;;;;;;;22.30;52.99;98655.94;262457;1092;114804;-71
2021/08/02 16:16:17;;;;;;;5.60;3.03;;;;;;;22.23;52.71;98668.53;263253;1092;114696;-68
2021/08/02 16:21:20;;;;;;;7.43;3.13;;;;;;;22.17;53.32;98676.34;263431;1086;114864;-69
2021/08/02 16:26:24;;;;;;;4.83;3.28;;;;;;;22.15;53.26;98672.14;263744;1093;115120;-72
2021/08/02 16:31:28;;;;;;;3.93;2.98;;;;;;;22.13;53.68;98674.14;263549;1092;115186;-66
2021/08/02 16:36:32;;;;;;;7.10;3.20;;;;;;;22.09;53.46;98689.08;263408;1092;114621;-71
2021/08/02 16:41:36;;;;;;;5.70;3.03;;;;;;;22.03;53.25;98703.33;263555;1092;115467;-68
2021/08/02 16:46:39;;;;;;;3.50;2.80;;;;;;;21.90;53.14;98702.02;263680;1092;114729;-66
2021/08/02 16:51:43;;;;;;;7.00;2.90;;;;;;;21.75;53.67;98702.94;263647;1092;115248;-68
2021/08/02 16:56:46;;;;;;;94.73;59.77;;;;;;;21.59;53.83;98693.83;262291;1092;115482;-66
2021/08/02 17:01:51;;;;;;;5.93;4.18;;;;;;;21.45;54.10;98673.73;263348;1093;115495;-66
2021/08/02 17:06:56;;;;;;;4.43;3.10;;;;;;;21.37;54.53;98670.23;262969;1092;115647;-68
2021/08/02 17:11:59;;;;;;;4.90;3.20;;;;;;;21.32;54.93;98686.93;263696;1092;115744;-72
2021/08/02 17:17:03;;;;;;;6.55;3.15;;;;;;;21.24;54.79;98692.38;263509;1093;115597;-67
2021/08/02 17:22:07;;;;;;;8.75;3.10;;;;;;;21.20;55.44;98697.28;263543;1093;114864;-66
2021/08/02 17:27:11;;;;;;;7.00;3.25;;;;;;;21.15;55.53;98720.45;263045;1092;115166;-73
2021/08/02 17:32:15;;;;;;;9.65;3.75;;;;;;;21.00;55.71;98728.42;263635;1093;115609;-66
2021/08/02 17:37:19;;;;;;;6.95;3.00;;;;;;;20.81;55.88;98753.93;262845;1093;115190;-69
2021/08/02 17:42:22;;;;;;;5.95;3.35;;;;;;;20.54;56.04;98755.06;263306;1092;115274;-70
2021/08/02 17:47:26;;;;;;;3.10;2.30;;;;;;;20.26;56.47;98762.56;263658;1093;115364;-67
2021/08/02 17:52:30;;;;;;;;;;;;;;;20.15;57.25;98769.12;263356;1092;114943;-65
2021/08/02 17:57:35;;;;;;;4.03;2.83;;;;;;;20.08;57.55;98777.03;263219;1092;103246;-63
2021/08/02 18:02:39;;;;;;;4.90;2.50;;;;;;;20.01;57.67;98783.25;262983;1091;115027;-67
2021/08/02 18:07:44;;;;;;;4.63;3.03;;;;;;;19.87;57.72;98779.30;263691;1092;115582;-65
2021/08/02 18:12:47;;;;;;;8.45;3.58;;;;;;;19.79;58.25;98787.33;263101;1092;115381;-66
2021/08/02 18:17:51;;;;;;;3.73;2.63;;;;;;;19.69;58.14;98800.09;263122;1092;115219;-68
2021/08/02 18:22:55;;;;;;;34.65;24.40;;;;;;;19.61;58.42;98800.86;262941;1092;115446;-68
2021/08/02 18:27:58;;;;;;;7.78;3.73;;;;;;;19.56;58.52;98806.72;263253;1092;115258;-68
2021/08/02 18:33:02;;;;;;;3.05;2.30;;;;;;;19.53;58.62;98806.19;263131;1093;115117;-69
2021/08/02 18:38:06;;;;;;;4.73;2.98;;;;;;;19.47;58.61;98812.25;263285;1092;114824;-68
2021/08/02 18:43:10;;;;;;;4.68;3.15;;;;;;;19.39;58.98;98813.00;263615;1093;115186;-65
2021/08/02 18:48:13;;;;;;;8.07;3.00;;;;;;;19.43;59.45;98806.31;262707;1091;115350;-70
2021/08/02 18:53:17;;;;;;;9.37;3.37;;;;;;;19.47;59.16;98809.55;263390;1092;115292;-68
2021/08/02 18:58:21;;;;;;;7.00;2.95;;;;;;;19.41;59.14;98812.87;263469;1092;115210;-69
2021/08/02 19:03:24;;;;;;;5.13;2.40;;;;;;;19.40;59.05;98819.28;263295;1093;115190;-67
2021/08/02 19:08:30;;;;;;;7.63;2.18;;;;;;;19.37;59.73;98832.07;263245;1093;115401;-70
2021/08/02 19:13:35;;;;;;;4.20;2.00;;;;;;;19.40;59.40;98836.31;263433;1093;115416;-71
2021/08/02 19:18:55;;;;;;;22.50;16.70;;;;;;;19.56;59.53;98833.72;263157;1092;115272;-66
2021/08/02 19:24:00;;;;;;;3.90;2.37;;;;;;;19.40;58.69;98836.31;263862;1093;115986;-67
2021/08/02 19:29:05;;;;;;;8.30;4.03;;;;;;;19.17;58.66;98837.80;263375;1091;115166;-67
2021/08/02 19:34:09;;;;;;;2.63;1.83;;;;;;;18.94;58.64;98838.24;263084;1093;114791;-73
2021/08/02 19:39:14;;;;;;;4.10;2.28;;;;;;;18.77;58.71;98839.08;262016;1092;115037;-67
2021/08/02 19:44:31;;;;;;;4.57;2.60;;;;;;;18.54;59.06;98836.77;262637;1092;115155;-72
2021/08/02 19:49:45;;;;;;;4.53;2.40;;;;;;;18.35;59.58;98834.20;263475;1092;114383;-70
2021/08/02 19:54:50;;;;;;;3.23;2.30;;;;;;;18.24;59.80;98837.94;263508;1092;115401;-69
2021/08/02 19:59:58;;;;;;;3.20;2.13;;;;;;;18.10;59.92;98843.78;263178;1093;115041;-69
2021/08/02 20:05:07;;;;;;;3.00;2.00;;;;;;;18.04;60.28;98837.16;263348;1092;115144;-67
2021/08/02 20:10:12;;;;;;;3.53;2.47;;;;;;;18.05;60.40;98838.01;262688;1092;114847;-69
2021/08/02 20:15:16;;;;;;;8.20;2.90;;;;;;;18.04;60.96;98847.94;263459;1092;115324;-70
2021/08/02 20:20:19;;;;;;;6.00;2.40;;;;;;;18.00;60.67;98833.05;262814;1093;115175;-70
2021/08/02 20:25:32;;;;;;;4.50;2.37;;;;;;;17.96;60.67;98837.88;263548;1092;115165;-69
2021/08/02 20:30:38;;;;;;;3.13;2.40;;;;;;;17.87;60.84;98846.86;263493;1093;115433;-69
2021/08/02 20:35:48;;;;;;;3.53;2.37;;;;;;;17.80;61.25;98844.88;263369;1093;114741;-71
2021/08/02 20:40:53;;;;;;;4.63;3.07;;;;;;;17.71;61.10;98857.34;263311;1093;115375;-72
2021/08/02 20:45:58;;;;;;;5.33;2.70;;;;;;;17.66;61.46;98855.09;263403;1092;114795;-70
2021/08/02 20:51:02;;;;;;;4.70;2.80;;;;;;;17.65;61.77;98858.76;262730;1092;114770;-70
2021/08/02 20:56:07;;;;;;;6.23;3.03;;;;;;;17.67;61.96;98850.56;263497;1093;115220;-68
2021/08/02 21:01:20;;;;;;;6.27;3.00;;;;;;;17.64;62.09;98859.77;263662;1092;115440;-73
2021/08/02 21:06:33;;;;;;;5.13;3.30;;;;;;;17.59;62.31;98867.41;263376;1093;115756;-68
2021/08/02 21:11:39;;;;;;;7.60;4.00;;;;;;;17.52;62.27;98868.97;263205;1093;115165;-68
2021/08/02 21:16:54;;;;;;;4.10;3.20;;;;;;;17.46;62.74;98864.19;263153;1093;114890;-67
2021/08/02 21:21:57;;;;;;;;;;;;;;;17.41;62.39;98869.14;263695;1093;115086;-69
2021/08/02 21:27:02;;;;;;;6.40;4.30;;;;;;;17.39;63.06;98876.48;263638;1092;102233;-66
2021/08/02 21:32:06;;;;;;;6.98;4.18;;;;;;;17.39;62.96;98881.87;263208;1093;115357;-69
2021/08/02 21:37:10;;;;;;;5.23;3.90;;;;;;;17.36;63.04;98883.02;263354;1093;114921;-68
2021/08/02 21:42:13;;;;;;;6.73;4.60;;;;;;;17.31;63.17;98887.13;263379;1093;115525;-67
2021/08/02 21:47:17;;;;;;;9.07;4.37;;;;;;;17.28;63.26;98895.47;263127;1092;115093;-69
2021/08/02 21:52:20;;;;;;;8.00;5.37;;;;;;;17.19;63.22;98897.19;263333;1092;115103;-68
2021/08/02 21:57:27;;;;;;;5.70;4.33;;;;;;;17.19;63.26;98900.72;263554;1093;115975;-69
2021/08/02 22:02:30;;;;;;;7.53;4.23;;;;;;;17.19;63.30;98895.34;262548;1092;116573;-68
2021/08/02 22:07:36;;;;;;;9.53;4.70;;;;;;;17.16;63.40;98892.08;262382;1092;114834;-68
2021/08/02 22:12:42;;;;;;;10.40;5.00;;;;;;;17.11;63.79;98899.70;262967;1092;116303;-67
2021/08/02 22:17:47;;;;;;;8.73;4.30;;;;;;;17.06;63.58;98905.52;263617;1093;115180;-70
2021/08/02 22:22:52;;;;;;;10.70;5.03;;;;;;;17.00;63.81;98912.28;261529;1092;114532;-74
2021/08/02 22:27:55;;;;;;;10.20;5.30;;;;;;;16.93;64.23;98903.08;263447;1092;115687;-72
2021/08/02 22:33:00;;;;;;;;;;;;;;;16.96;63.97;98908.18;262930;1092;115809;-69
2021/08/02 22:38:04;;;;;;;8.13;4.90;;;;;;;16.93;64.04;98905.77;261060;1092;102911;-70
2021/08/02 22:43:08;;;;;;;10.73;4.73;;;;;;;16.91;64.18;98902.36;263488;1092;114906;-70
2021/08/02 22:48:11;;;;;;;6.67;4.80;;;;;;;16.88;64.28;98901.78;261603;1093;115070;-71
2021/08/02 22:53:16;;;;;;;9.35;4.83;;;;;;;16.85;64.51;98919.06;261871;1092;114783;-71
2021/08/02 22:58:22;;;;;;;8.33;5.28;;;;;;;16.86;64.61;98914.53;263470;1093;114970;-67
2021/08/02 23:03:34;;;;;;;10.45;5.08;;;;;;;16.83;64.15;98912.12;263471;1093;114790;-66
2021/08/02 23:08:40;;;;;;;8.40;5.07;;;;;;;16.81;64.47;98911.39;263413;1093;115237;-69
2021/08/02 23:13:44;;;;;;;7.77;5.13;;;;;;;16.82;64.77;98905.89;263228;1093;114572;-75
2021/08/02 23:18:49;;;;;;;7.77;5.00;;;;;;;16.87;64.54;98916.22;261444;1092;115173;-70
2021/08/02 23:23:53;;;;;;;8.18;5.18;;;;;;;16.85;64.64;98915.50;263773;1092;115432;-69
2021/08/02 23:29:01;;;;;;;10.25;5.55;;;;;;;16.78;64.54;98921.45;262464;1093;114784;-68